sensor_id;sensor_type;location;lat;lon;timestamp;temperature;humidity
16273;DHT22;8244;50.044;9.006;2023-05-18T00:00:11;7.80;99.90
16273;DHT22;8244;50.044;9.006;2023-05-18T00:05:15;7.80;99.90
16273;DHT22;8244;50.044;9.006;2023-05-18T00:10:18;7.70;99.90
16273;DHT22;8244;50.044;9.006;2023-05-18T00:15:21;7.60;99.90
16273;DHT22;8244;50.044;9.006;2023-05-18T00:20:23;7.50;99.90
16273;DHT22;8244;50.044;9.006;2023-05-18T00:25:26;7.50;99.90
16273;DHT22;8244;50.044;9.006;2023-05-18T00:30:29;7.40;99.90
16273;DHT22;8244;50.044;9.006;2023-05-18T00:35:30;7.40;99.90
16273;DHT22;8244;50.044;9.006;2023-05-18T00:40:32;7.30;99.90
16273;DHT22;8244;50.044;9.006;2023-05-18T00:45:35;7.20;99.90
16273;DHT22;8244;50.044;9.006;2023-05-18T00:50:37;7.20;99.90
16273;DHT22;8244;50.044;9.006;2023-05-18T00:55:39;7.10;99.90
16273;DHT22;8244;50.044;9.006;2023-05-18T01:00:42;7.00;99.90
16273;DHT22;8244;50.044;9.006;2023-05-18T01:05:44;6.90;99.90
16273;DHT22;8244;50.044;9.006;2023-05-18T01:10:51;6.90;99.90
16273;DHT22;8244;50.044;9.006;2023-05-18T01:15:56;6.80;99.90
16273;DHT22;8244;50.044;9.006;2023-05-18T01:21:10;6.80;99.90
16273;DHT22;8244;50.044;9.006;2023-05-18T01:26:15;6.70;99.90
16273;DHT22;8244;50.044;9.006;2023-05-18T01:31:24;6.60;99.90
16273;DHT22;8244;50.044;9.006;2023-05-18T01:36:26;6.50;99.90
16273;DHT22;8244;50.044;9.006;2023-05-18T01:41:30;6.40;99.90
16273;DHT22;8244;50.044;9.006;2023-05-18T01:46:39;6.40;99.90
16273;DHT22;8244;50.044;9.006;2023-05-18T01:51:45;6.40;99.90
16273;DHT22;8244;50.044;9.006;2023-05-18T01:56:49;6.30;99.90
16273;DHT22;8244;50.044;9.006;2023-05-18T02:01:57;6.30;99.90
16273;DHT22;8244;50.044;9.006;2023-05-18T02:06:59;6.20;99.90
16273;DHT22;8244;50.044;9.006;2023-05-18T02:12:03;6.20;99.90
16273;DHT22;8244;50.044;9.006;2023-05-18T02:17:05;6.10;99.90
16273;DHT22;8244;50.044;9.006;2023-05-18T02:22:07;6.10;99.90
16273;DHT22;8244;50.044;9.006;2023-05-18T02:27:10;6.00;99.90
16273;DHT22;8244;50.044;9.006;2023-05-18T02:32:14;6.00;99.90
16273;DHT22;8244;50.044;9.006;2023-05-18T02:37:16;6.00;99.90
16273;DHT22;8244;50.044;9.006;2023-05-18T02:42:19;5.90;99.90
16273;DHT22;8244;50.044;9.006;2023-05-18T02:47:20;5.80;99.90
16273;DHT22;8244;50.044;9.006;2023-05-18T02:52:22;5.80;99.90
16273;DHT22;8244;50.044;9.006;2023-05-18T02:57:25;5.70;99.90
16273;DHT22;8244;50.044;9.006;2023-05-18T03:02:27;5.70;99.90
16273;DHT22;8244;50.044;9.006;2023-05-18T03:07:29;5.60;99.90
16273;DHT22;8244;50.044;9.006;2023-05-18T03:12:33;5.60;99.90
16273;DHT22;8244;50.044;9.006;2023-05-18T03:17:35;5.60;99.90
16273;DHT22;8244;50.044;9.006;2023-05-18T03:22:37;5.50;99.90
16273;DHT22;8244;50.044;9.006;2023-05-18T03:27:40;5.50;99.90
16273;DHT22;8244;50.044;9.006;2023-05-18T03:32:42;5.50;99.90
16273;DHT22;8244;50.044;9.006;2023-05-18T03:37:43;5.40;99.90
16273;DHT22;8244;50.044;9.006;2023-05-18T03:42:46;5.40;99.90
16273;DHT22;8244;50.044;9.006;2023-05-18T03:47:48;5.40;99.90
16273;DHT22;8244;50.044;9.006;2023-05-18T03:52:51;5.40;99.90
16273;DHT22;8244;50.044;9.006;2023-05-18T03:57:54;5.40;99.90
16273;DHT22;8244;50.044;9.006;2023-05-18T04:02:58;5.40;99.90
16273;DHT22;8244;50.044;9.006;2023-05-18T04:08:02;5.30;99.90
16273;DHT22;8244;50.044;9.006;2023-05-18T04:13:06;5.40;99.90
16273;DHT22;8244;50.044;9.006;2023-05-18T04:18:07;5.40;99.90
16273;DHT22;8244;50.044;9.006;2023-05-18T04:23:09;5.40;99.90
16273;DHT22;8244;50.044;9.006;2023-05-18T04:28:12;5.40;99.90
16273;DHT22;8244;50.044;9.006;2023-05-18T04:33:14;5.50;99.90
16273;DHT22;8244;50.044;9.006;2023-05-18T04:38:15;5.60;99.90
16273;DHT22;8244;50.044;9.006;2023-05-18T04:43:19;5.90;99.90
16273;DHT22;8244;50.044;9.006;2023-05-18T04:48:21;6.20;99.90
16273;DHT22;8244;50.044;9.006;2023-05-18T04:53:22;6.50;99.90
16273;DHT22;8244;50.044;9.006;2023-05-18T04:58:28;7.20;99.90
16273;DHT22;8244;50.044;9.006;2023-05-18T05:03:29;8.30;99.90
16273;DHT22;8244;50.044;9.006;2023-05-18T05:08:31;9.50;99.90
16273;DHT22;8244;50.044;9.006;2023-05-18T05:13:35;10.70;99.90
16273;DHT22;8244;50.044;9.006;2023-05-18T05:18:37;11.90;99.90
16273;DHT22;8244;50.044;9.006;2023-05-18T05:23:39;13.00;99.90
16273;DHT22;8244;50.044;9.006;2023-05-18T05:28:42;14.00;99.90
16273;DHT22;8244;50.044;9.006;2023-05-18T05:33:45;15.00;99.90
16273;DHT22;8244;50.044;9.006;2023-05-18T05:38:47;15.90;96.00
16273;DHT22;8244;50.044;9.006;2023-05-18T05:43:50;16.70;94.90
16273;DHT22;8244;50.044;9.006;2023-05-18T05:48:51;17.50;92.10
16273;DHT22;8244;50.044;9.006;2023-05-18T05:53:53;18.20;90.00
16273;DHT22;8244;50.044;9.006;2023-05-18T05:58:56;18.70;87.20
16273;DHT22;8244;50.044;9.006;2023-05-18T06:03:58;19.30;84.60
16273;DHT22;8244;50.044;9.006;2023-05-18T06:09:00;19.80;81.00
16273;DHT22;8244;50.044;9.006;2023-05-18T06:14:05;20.20;80.40
16273;DHT22;8244;50.044;9.006;2023-05-18T06:19:07;20.70;78.10
16273;DHT22;8244;50.044;9.006;2023-05-18T06:24:08;21.30;76.80
16273;DHT22;8244;50.044;9.006;2023-05-18T06:29:12;21.80;74.30
16273;DHT22;8244;50.044;9.006;2023-05-18T06:34:15;22.20;72.10
16273;DHT22;8244;50.044;9.006;2023-05-18T06:39:16;22.70;70.40
16273;DHT22;8244;50.044;9.006;2023-05-18T06:44:19;23.00;69.60
16273;DHT22;8244;50.044;9.006;2023-05-18T06:49:21;23.40;67.40
16273;DHT22;8244;50.044;9.006;2023-05-18T06:54:23;23.60;67.90
16273;DHT22;8244;50.044;9.006;2023-05-18T06:59:26;23.80;66.80
16273;DHT22;8244;50.044;9.006;2023-05-18T07:04:28;24.10;63.60
16273;DHT22;8244;50.044;9.006;2023-05-18T07:09:30;24.30;64.00
16273;DHT22;8244;50.044;9.006;2023-05-18T07:14:33;24.60;63.40
16273;DHT22;8244;50.044;9.006;2023-05-18T07:19:35;25.00;62.60
16273;DHT22;8244;50.044;9.006;2023-05-18T07:24:37;25.20;59.00
16273;DHT22;8244;50.044;9.006;2023-05-18T07:29:40;25.20;61.40
16273;DHT22;8244;50.044;9.006;2023-05-18T07:34:43;25.70;62.20
16273;DHT22;8244;50.044;9.006;2023-05-18T07:39:46;25.90;59.80
16273;DHT22;8244;50.044;9.006;2023-05-18T07:44:49;25.90;58.50
16273;DHT22;8244;50.044;9.006;2023-05-18T07:49:51;26.00;60.10
16273;DHT22;8244;50.044;9.006;2023-05-18T07:54:54;26.10;61.90
16273;DHT22;8244;50.044;9.006;2023-05-18T07:59:57;26.40;60.40
16273;DHT22;8244;50.044;9.006;2023-05-18T08:04:59;26.60;59.20
16273;DHT22;8244;50.044;9.006;2023-05-18T08:10:01;26.80;57.60
16273;DHT22;8244;50.044;9.006;2023-05-18T08:15:07;26.70;57.90
16273;DHT22;8244;50.044;9.006;2023-05-18T08:20:10;26.70;58.70
16273;DHT22;8244;50.044;9.006;2023-05-18T08:25:12;27.20;58.70
16273;DHT22;8244;50.044;9.006;2023-05-18T08:30:15;27.60;58.40
16273;DHT22;8244;50.044;9.006;2023-05-18T08:35:20;28.20;55.00
16273;DHT22;8244;50.044;9.006;2023-05-18T08:40:23;28.00;52.40
16273;DHT22;8244;50.044;9.006;2023-05-18T08:45:35;28.00;56.00
16273;DHT22;8244;50.044;9.006;2023-05-18T08:50:40;27.40;55.10
16273;DHT22;8244;50.044;9.006;2023-05-18T08:55:44;27.00;53.80
16273;DHT22;8244;50.044;9.006;2023-05-18T09:00:48;27.20;56.60
16273;DHT22;8244;50.044;9.006;2023-05-18T09:05:54;26.90;54.50
16273;DHT22;8244;50.044;9.006;2023-05-18T09:10:57;26.80;57.00
16273;DHT22;8244;50.044;9.006;2023-05-18T09:16:01;26.80;56.30
16273;DHT22;8244;50.044;9.006;2023-05-18T09:21:03;26.10;54.60
16273;DHT22;8244;50.044;9.006;2023-05-18T09:26:06;24.90;56.40
16273;DHT22;8244;50.044;9.006;2023-05-18T09:31:17;24.00;56.10
16273;DHT22;8244;50.044;9.006;2023-05-18T09:36:23;24.60;54.30
16273;DHT22;8244;50.044;9.006;2023-05-18T09:41:26;24.90;56.00
16273;DHT22;8244;50.044;9.006;2023-05-18T09:46:34;25.20;54.90
16273;DHT22;8244;50.044;9.006;2023-05-18T09:51:37;25.60;53.90
16273;DHT22;8244;50.044;9.006;2023-05-18T09:56:39;26.10;54.00
16273;DHT22;8244;50.044;9.006;2023-05-18T10:01:55;26.40;53.50
16273;DHT22;8244;50.044;9.006;2023-05-18T10:06:57;26.60;54.60
16273;DHT22;8244;50.044;9.006;2023-05-18T10:11:59;26.70;54.10
16273;DHT22;8244;50.044;9.006;2023-05-18T10:17:04;26.90;55.50
16273;DHT22;8244;50.044;9.006;2023-05-18T10:22:06;27.10;56.00
16273;DHT22;8244;50.044;9.006;2023-05-18T10:27:09;27.50;52.30
16273;DHT22;8244;50.044;9.006;2023-05-18T10:32:13;27.20;54.10
16273;DHT22;8244;50.044;9.006;2023-05-18T10:37:18;27.70;51.70
16273;DHT22;8244;50.044;9.006;2023-05-18T10:42:22;28.10;51.20
16273;DHT22;8244;50.044;9.006;2023-05-18T10:47:27;27.50;53.40
16273;DHT22;8244;50.044;9.006;2023-05-18T10:52:31;28.30;53.80
16273;DHT22;8244;50.044;9.006;2023-05-18T10:57:37;28.40;51.10
16273;DHT22;8244;50.044;9.006;2023-05-18T11:02:41;28.20;50.20
16273;DHT22;8244;50.044;9.006;2023-05-18T11:07:44;28.20;52.40
16273;DHT22;8244;50.044;9.006;2023-05-18T11:12:45;28.90;51.30
16273;DHT22;8244;50.044;9.006;2023-05-18T11:18:12;28.80;53.70
16273;DHT22;8244;50.044;9.006;2023-05-18T11:23:15;28.80;50.00
16273;DHT22;8244;50.044;9.006;2023-05-18T11:28:21;29.20;49.80
16273;DHT22;8244;50.044;9.006;2023-05-18T11:33:26;28.40;49.80
16273;DHT22;8244;50.044;9.006;2023-05-18T11:38:50;28.60;49.90
16273;DHT22;8244;50.044;9.006;2023-05-18T11:44:16;28.30;51.00
16273;DHT22;8244;50.044;9.006;2023-05-18T11:49:22;28.60;51.10
16273;DHT22;8244;50.044;9.006;2023-05-18T11:54:24;29.40;51.90
16273;DHT22;8244;50.044;9.006;2023-05-18T11:59:30;30.00;51.50
16273;DHT22;8244;50.044;9.006;2023-05-18T12:04:33;30.20;51.30
16273;DHT22;8244;50.044;9.006;2023-05-18T12:09:39;30.00;53.00
16273;DHT22;8244;50.044;9.006;2023-05-18T12:14:41;30.20;46.90
16273;DHT22;8244;50.044;9.006;2023-05-18T12:19:47;29.50;51.60
16273;DHT22;8244;50.044;9.006;2023-05-18T12:24:50;29.30;52.40
16273;DHT22;8244;50.044;9.006;2023-05-18T12:29:53;29.40;48.00
16273;DHT22;8244;50.044;9.006;2023-05-18T12:34:57;28.70;50.40
16273;DHT22;8244;50.044;9.006;2023-05-18T12:40:00;28.30;49.80
16273;DHT22;8244;50.044;9.006;2023-05-18T12:45:01;27.80;50.50
16273;DHT22;8244;50.044;9.006;2023-05-18T12:50:05;28.40;50.30
16273;DHT22;8244;50.044;9.006;2023-05-18T12:55:08;28.40;50.30
16273;DHT22;8244;50.044;9.006;2023-05-18T13:00:11;28.60;52.40
16273;DHT22;8244;50.044;9.006;2023-05-18T13:05:15;28.40;51.60
16273;DHT22;8244;50.044;9.006;2023-05-18T13:10:23;28.90;52.30
16273;DHT22;8244;50.044;9.006;2023-05-18T13:15:25;28.80;47.80
16273;DHT22;8244;50.044;9.006;2023-05-18T13:20:34;28.70;51.50
16273;DHT22;8244;50.044;9.006;2023-05-18T13:25:36;29.30;51.20
16273;DHT22;8244;50.044;9.006;2023-05-18T13:30:39;28.80;47.60
16273;DHT22;8244;50.044;9.006;2023-05-18T13:35:43;28.40;48.60
16273;DHT22;8244;50.044;9.006;2023-05-18T13:40:45;28.60;47.80
16273;DHT22;8244;50.044;9.006;2023-05-18T13:45:48;28.90;51.50
16273;DHT22;8244;50.044;9.006;2023-05-18T13:50:51;28.90;52.50
16273;DHT22;8244;50.044;9.006;2023-05-18T13:55:53;28.40;53.70
16273;DHT22;8244;50.044;9.006;2023-05-18T14:00:55;28.90;53.30
16273;DHT22;8244;50.044;9.006;2023-05-18T14:05:58;29.20;51.90
16273;DHT22;8244;50.044;9.006;2023-05-18T14:11:00;29.30;51.30
16273;DHT22;8244;50.044;9.006;2023-05-18T14:16:04;29.30;49.80
16273;DHT22;8244;50.044;9.006;2023-05-18T14:21:07;29.10;53.50
16273;DHT22;8244;50.044;9.006;2023-05-18T14:26:09;29.40;51.10
16273;DHT22;8244;50.044;9.006;2023-05-18T14:31:10;29.40;50.90
16273;DHT22;8244;50.044;9.006;2023-05-18T14:36:14;29.40;50.10
16273;DHT22;8244;50.044;9.006;2023-05-18T14:41:16;29.20;49.70
16273;DHT22;8244;50.044;9.006;2023-05-18T14:46:18;28.60;49.60
16273;DHT22;8244;50.044;9.006;2023-05-18T14:51:21;28.30;52.20
16273;DHT22;8244;50.044;9.006;2023-05-18T14:56:24;27.90;52.80
16273;DHT22;8244;50.044;9.006;2023-05-18T15:01:26;27.50;51.20
16273;DHT22;8244;50.044;9.006;2023-05-18T15:06:29;27.40;53.50
16273;DHT22;8244;50.044;9.006;2023-05-18T15:11:30;27.50;52.50
16273;DHT22;8244;50.044;9.006;2023-05-18T15:16:32;27.30;52.90
16273;DHT22;8244;50.044;9.006;2023-05-18T15:21:35;26.90;52.80
16273;DHT22;8244;50.044;9.006;2023-05-18T15:26:37;26.50;53.70
16273;DHT22;8244;50.044;9.006;2023-05-18T15:31:39;26.40;54.30
16273;DHT22;8244;50.044;9.006;2023-05-18T15:36:42;26.30;55.90
16273;DHT22;8244;50.044;9.006;2023-05-18T15:41:43;25.30;56.00
16273;DHT22;8244;50.044;9.006;2023-05-18T15:46:45;24.80;56.10
16273;DHT22;8244;50.044;9.006;2023-05-18T15:51:48;24.70;56.70
16273;DHT22;8244;50.044;9.006;2023-05-18T15:56:50;25.00;56.50
16273;DHT22;8244;50.044;9.006;2023-05-18T16:01:52;25.20;57.60
16273;DHT22;8244;50.044;9.006;2023-05-18T16:06:55;25.10;56.30
16273;DHT22;8244;50.044;9.006;2023-05-18T16:11:57;24.90;57.30
16273;DHT22;8244;50.044;9.006;2023-05-18T16:16:58;24.80;56.40
16273;DHT22;8244;50.044;9.006;2023-05-18T16:22:01;24.70;56.70
16273;DHT22;8244;50.044;9.006;2023-05-18T16:27:03;24.60;57.40
16273;DHT22;8244;50.044;9.006;2023-05-18T16:32:05;24.30;57.70
16273;DHT22;8244;50.044;9.006;2023-05-18T16:37:08;24.10;58.70
16273;DHT22;8244;50.044;9.006;2023-05-18T16:42:10;23.50;59.20
16273;DHT22;8244;50.044;9.006;2023-05-18T16:47:12;23.30;59.30
16273;DHT22;8244;50.044;9.006;2023-05-18T16:52:15;23.30;59.90
16273;DHT22;8244;50.044;9.006;2023-05-18T16:57:17;23.10;60.40
16273;DHT22;8244;50.044;9.006;2023-05-18T17:02:19;22.90;61.40
16273;DHT22;8244;50.044;9.006;2023-05-18T17:07:24;22.70;59.70
16273;DHT22;8244;50.044;9.006;2023-05-18T17:12:26;22.70;61.70
16273;DHT22;8244;50.044;9.006;2023-05-18T17:17:28;22.80;62.30
16273;DHT22;8244;50.044;9.006;2023-05-18T17:22:31;22.60;61.10
16273;DHT22;8244;50.044;9.006;2023-05-18T17:27:33;22.20;62.50
16273;DHT22;8244;50.044;9.006;2023-05-18T17:32:35;21.90;63.20
16273;DHT22;8244;50.044;9.006;2023-05-18T17:37:39;21.50;63.40
16273;DHT22;8244;50.044;9.006;2023-05-18T17:42:41;21.20;63.90
16273;DHT22;8244;50.044;9.006;2023-05-18T17:47:42;20.70;64.60
16273;DHT22;8244;50.044;9.006;2023-05-18T17:52:46;20.40;66.10
16273;DHT22;8244;50.044;9.006;2023-05-18T17:57:48;20.20;66.00
16273;DHT22;8244;50.044;9.006;2023-05-18T18:02:51;20.00;65.90
16273;DHT22;8244;50.044;9.006;2023-05-18T18:07:54;19.90;67.80
16273;DHT22;8244;50.044;9.006;2023-05-18T18:12:56;19.70;68.20
16273;DHT22;8244;50.044;9.006;2023-05-18T18:17:58;19.60;68.20
16273;DHT22;8244;50.044;9.006;2023-05-18T18:23:01;19.60;68.70
16273;DHT22;8244;50.044;9.006;2023-05-18T18:28:03;19.40;68.70
16273;DHT22;8244;50.044;9.006;2023-05-18T18:33:07;19.30;68.40
16273;DHT22;8244;50.044;9.006;2023-05-18T18:38:10;19.10;68.30
16273;DHT22;8244;50.044;9.006;2023-05-18T18:43:12;18.80;69.80
16273;DHT22;8244;50.044;9.006;2023-05-18T18:48:14;18.50;69.90
16273;DHT22;8244;50.044;9.006;2023-05-18T18:53:21;18.30;70.40
16273;DHT22;8244;50.044;9.006;2023-05-18T18:58:23;18.10;70.60
16273;DHT22;8244;50.044;9.006;2023-05-18T19:03:25;17.70;71.50
16273;DHT22;8244;50.044;9.006;2023-05-18T19:08:28;17.40;71.90
16273;DHT22;8244;50.044;9.006;2023-05-18T19:13:31;17.10;72.90
16273;DHT22;8244;50.044;9.006;2023-05-18T19:18:32;16.80;73.60
16273;DHT22;8244;50.044;9.006;2023-05-18T19:23:35;16.60;74.20
16273;DHT22;8244;50.044;9.006;2023-05-18T19:28:37;16.40;75.40
16273;DHT22;8244;50.044;9.006;2023-05-18T19:33:39;16.20;75.90
16273;DHT22;8244;50.044;9.006;2023-05-18T19:38:42;16.00;77.60
16273;DHT22;8244;50.044;9.006;2023-05-18T19:43:43;15.80;78.20
16273;DHT22;8244;50.044;9.006;2023-05-18T19:48:45;15.60;78.70
16273;DHT22;8244;50.044;9.006;2023-05-18T19:53:48;15.40;78.90
16273;DHT22;8244;50.044;9.006;2023-05-18T19:58:50;15.20;80.00
16273;DHT22;8244;50.044;9.006;2023-05-18T20:03:52;15.10;80.90
16273;DHT22;8244;50.044;9.006;2023-05-18T20:08:57;14.80;81.60
16273;DHT22;8244;50.044;9.006;2023-05-18T20:14:00;14.60;82.30
16273;DHT22;8244;50.044;9.006;2023-05-18T20:19:02;14.50;82.70
16273;DHT22;8244;50.044;9.006;2023-05-18T20:24:05;14.40;82.70
16273;DHT22;8244;50.044;9.006;2023-05-18T20:29:07;14.20;82.70
16273;DHT22;8244;50.044;9.006;2023-05-18T20:34:09;14.20;83.70
16273;DHT22;8244;50.044;9.006;2023-05-18T20:39:12;14.00;84.10
16273;DHT22;8244;50.044;9.006;2023-05-18T20:44:14;13.90;84.70
16273;DHT22;8244;50.044;9.006;2023-05-18T20:49:17;13.80;85.50
16273;DHT22;8244;50.044;9.006;2023-05-18T20:54:22;13.70;85.60
16273;DHT22;8244;50.044;9.006;2023-05-18T20:59:23;13.50;85.40
16273;DHT22;8244;50.044;9.006;2023-05-18T21:04:25;13.40;86.10
16273;DHT22;8244;50.044;9.006;2023-05-18T21:09:28;13.30;86.00
16273;DHT22;8244;50.044;9.006;2023-05-18T21:14:31;13.20;87.70
16273;DHT22;8244;50.044;9.006;2023-05-18T21:19:33;13.10;87.60
16273;DHT22;8244;50.044;9.006;2023-05-18T21:24:36;13.00;87.60
16273;DHT22;8244;50.044;9.006;2023-05-18T21:29:37;12.80;87.60
16273;DHT22;8244;50.044;9.006;2023-05-18T21:34:40;12.70;87.10
16273;DHT22;8244;50.044;9.006;2023-05-18T21:39:43;12.70;87.80
16273;DHT22;8244;50.044;9.006;2023-05-18T21:44:47;12.60;88.10
16273;DHT22;8244;50.044;9.006;2023-05-18T21:49:48;12.50;88.90
16273;DHT22;8244;50.044;9.006;2023-05-18T21:54:51;12.40;89.30
16273;DHT22;8244;50.044;9.006;2023-05-18T21:59:53;12.30;89.80
16273;DHT22;8244;50.044;9.006;2023-05-18T22:04:55;12.20;89.90
16273;DHT22;8244;50.044;9.006;2023-05-18T22:09:58;12.10;89.90
16273;DHT22;8244;50.044;9.006;2023-05-18T22:14:59;12.00;90.00
16273;DHT22;8244;50.044;9.006;2023-05-18T22:20:01;11.90;90.30
16273;DHT22;8244;50.044;9.006;2023-05-18T22:25:07;11.90;90.10
16273;DHT22;8244;50.044;9.006;2023-05-18T22:30:10;11.80;90.30
16273;DHT22;8244;50.044;9.006;2023-05-18T22:35:13;11.80;90.30
16273;DHT22;8244;50.044;9.006;2023-05-18T22:40:16;11.80;90.50
16273;DHT22;8244;50.044;9.006;2023-05-18T22:45:17;11.80;90.30
16273;DHT22;8244;50.044;9.006;2023-05-18T22:50:19;11.80;90.80
16273;DHT22;8244;50.044;9.006;2023-05-18T22:55:22;11.80;90.20
16273;DHT22;8244;50.044;9.006;2023-05-18T23:00:24;11.80;90.70
16273;DHT22;8244;50.044;9.006;2023-05-18T23:05:26;11.70;90.60
16273;DHT22;8244;50.044;9.006;2023-05-18T23:10:29;11.70;90.90
16273;DHT22;8244;50.044;9.006;2023-05-18T23:15:32;11.70;90.30
16273;DHT22;8244;50.044;9.006;2023-05-18T23:20:34;11.80;90.70
16273;DHT22;8244;50.044;9.006;2023-05-18T23:25:39;11.70;90.70
16273;DHT22;8244;50.044;9.006;2023-05-18T23:30:40;11.70;90.70
16273;DHT22;8244;50.044;9.006;2023-05-18T23:35:43;11.60;91.00
16273;DHT22;8244;50.044;9.006;2023-05-18T23:40:48;11.60;90.90
16273;DHT22;8244;50.044;9.006;2023-05-18T23:45:52;11.50;92.10
16273;DHT22;8244;50.044;9.006;2023-05-18T23:50:58;11.40;92.60
16273;DHT22;8244;50.044;9.006;2023-05-18T23:56:01;11.20;93.00
